createdAt,value
2023-02-11T00:00:54.280Z,102058.55
2023-02-11T00:03:25.660Z,102064.17
2023-02-11T00:06:05.101Z,102063.08
2023-02-11T00:08:34.238Z,102051.77
2023-02-11T00:11:05.535Z,102041.69
2023-02-11T00:13:36.212Z,102045.99
2023-02-11T00:16:12.342Z,102041.77
2023-02-11T00:18:43.009Z,102038.60
2023-02-11T00:21:15.545Z,102041.45
2023-02-11T00:23:46.772Z,102038.15
2023-02-11T00:26:20.251Z,102039.27
2023-02-11T00:28:51.819Z,102032.71
2023-02-11T00:31:26.612Z,102020.98
2023-02-11T00:33:57.444Z,102013.34
2023-02-11T00:36:30.040Z,102012.80
2023-02-11T00:39:01.742Z,102011.39
2023-02-11T00:41:32.677Z,102007.43
2023-02-11T00:44:04.001Z,102003.10
2023-02-11T00:46:34.765Z,102002.17
2023-02-11T00:49:05.609Z,101998.73
2023-02-11T00:51:36.506Z,101991.48
2023-02-11T00:54:09.038Z,101975.98
2023-02-11T00:56:39.781Z,101967.23
2023-02-11T00:59:10.420Z,101961.45
2023-02-11T01:01:41.405Z,101959.62
2023-02-11T01:04:12.956Z,101947.29
2023-02-11T01:06:43.710Z,101938.27
2023-02-11T01:09:14.559Z,101938.24
2023-02-11T01:11:45.326Z,101939.74
2023-02-11T01:14:16.166Z,101937.31
2023-02-11T01:16:47.071Z,101945.25
2023-02-11T01:19:17.728Z,101951.15
2023-02-11T01:21:49.987Z,101957.30
2023-02-11T01:24:20.569Z,101960.36
2023-02-11T01:26:51.360Z,101956.96
2023-02-11T01:29:22.355Z,101964.43
2023-02-11T01:31:53.728Z,101960.73
2023-02-11T01:34:24.481Z,101958.64
2023-02-11T01:36:59.955Z,101961.77
2023-02-11T01:39:35.718Z,101960.67
2023-02-11T01:42:06.879Z,101952.37
2023-02-11T01:44:40.368Z,101947.96
2023-02-11T01:47:11.300Z,101947.70
2023-02-11T01:49:46.951Z,101937.73
2023-02-11T01:52:22.441Z,101930.58
2023-02-11T01:55:13.991Z,101924.00
2023-02-11T01:57:51.825Z,101920.83
2023-02-11T02:00:26.659Z,101914.80
2023-02-11T02:03:01.360Z,101912.81
2023-02-11T02:05:36.812Z,101913.61
2023-02-11T02:08:12.945Z,101908.52
2023-02-11T02:10:46.901Z,101911.21
2023-02-11T02:13:20.671Z,101918.67
2023-02-11T02:15:54.389Z,101909.27
2023-02-11T02:18:40.496Z,101912.16
2023-02-11T02:21:45.949Z,101909.98
2023-02-11T02:24:39.124Z,101915.96
2023-02-11T02:27:38.298Z,101916.23
2023-02-11T02:30:50.696Z,101912.09
2023-02-11T02:33:31.694Z,101911.77
2023-02-11T02:36:10.762Z,101899.65
2023-02-11T02:38:48.550Z,101894.05
2023-02-11T02:41:21.974Z,101889.68
2023-02-11T02:43:53.958Z,101883.86
2023-02-11T02:46:27.433Z,101885.97
2023-02-11T02:48:59.324Z,101886.85
2023-02-11T02:51:59.964Z,101878.83
2023-02-11T02:54:50.455Z,101873.30
2023-02-11T02:57:33.822Z,101865.55
2023-02-11T03:00:22.130Z,101873.69
2023-02-11T03:03:06.056Z,101872.39
2023-02-11T03:05:47.949Z,101873.17
2023-02-11T03:08:26.298Z,101881.77
2023-02-11T03:10:59.562Z,101887.83
2023-02-11T03:13:33.957Z,101891.12
2023-02-11T03:16:09.557Z,101888.66
2023-02-11T03:18:43.377Z,101885.88
2023-02-11T03:21:16.532Z,101890.48
2023-02-11T03:23:51.737Z,101886.41
2023-02-11T03:26:29.499Z,101869.38
2023-02-11T03:29:05.718Z,101852.11
2023-02-11T03:31:42.973Z,101842.79
2023-02-11T03:34:19.513Z,101836.13
2023-02-11T03:36:56.019Z,101843.98
2023-02-11T03:39:30.794Z,101842.36
2023-02-11T03:42:03.177Z,101847.29
2023-02-11T03:44:38.053Z,101837.84
2023-02-11T03:47:13.214Z,101824.63
2023-02-11T03:49:47.321Z,101818.98
2023-02-11T03:52:20.455Z,101821.32
2023-02-11T03:54:55.675Z,101824.68
2023-02-11T03:57:26.307Z,101813.52
2023-02-11T03:59:58.944Z,101809.61
2023-02-11T04:02:32.796Z,101804.17
2023-02-11T04:05:04.105Z,101807.80
2023-02-11T04:07:35.274Z,101815.54
2023-02-11T04:10:06.642Z,101810.54
2023-02-11T04:12:37.410Z,101810.61
2023-02-11T04:15:10.067Z,101804.70
2023-02-11T04:17:40.973Z,101803.38
2023-02-11T04:20:13.661Z,101816.15
2023-02-11T04:22:44.315Z,101822.68
2023-02-11T04:25:15.067Z,101818.10
2023-02-11T04:27:45.786Z,101817.25
2023-02-11T04:30:17.282Z,101811.40
2023-02-11T04:32:48.057Z,101816.49
2023-02-11T04:35:19.118Z,101819.42
2023-02-11T04:37:49.906Z,101821.86
2023-02-11T04:40:20.988Z,101826.83
2023-02-11T04:42:51.722Z,101827.91
2023-02-11T04:45:22.531Z,101830.09
2023-02-11T04:47:53.225Z,101838.02
2023-02-11T04:50:24.177Z,101837.76
2023-02-11T04:52:54.926Z,101830.27
2023-02-11T04:55:25.809Z,101827.52
2023-02-11T04:57:56.559Z,101830.10
2023-02-11T05:00:27.402Z,101829.48
2023-02-11T05:02:58.085Z,101828.77
2023-02-11T05:05:28.729Z,101830.10
2023-02-11T05:07:59.808Z,101838.60
2023-02-11T05:10:30.606Z,101835.23
2023-02-11T05:13:01.485Z,101836.65
2023-02-11T05:15:32.388Z,101832.84
2023-02-11T05:18:03.161Z,101831.52
2023-02-11T05:20:33.888Z,101831.97
2023-02-11T05:23:04.570Z,101830.54
2023-02-11T05:25:35.313Z,101831.12
2023-02-11T05:28:06.601Z,101835.10
2023-02-11T05:30:37.458Z,101829.69
2023-02-11T05:33:08.264Z,101827.20
2023-02-11T05:35:38.990Z,101827.65
2023-02-11T05:38:09.642Z,101819.80
2023-02-11T05:40:40.486Z,101812.56
2023-02-11T05:43:11.205Z,101808.31
2023-02-11T05:45:41.871Z,101814.67
2023-02-11T05:48:12.511Z,101815.96
2023-02-11T05:50:43.622Z,101809.09
2023-02-11T05:53:14.414Z,101807.27
2023-02-11T05:55:45.684Z,101812.02
2023-02-11T05:58:16.452Z,101817.70
2023-02-11T06:00:47.433Z,101815.86
2023-02-11T06:03:18.218Z,101811.88
2023-02-11T06:05:49.368Z,101805.55
2023-02-11T06:08:20.365Z,101799.50
2023-02-11T06:10:51.031Z,101802.84
2023-02-11T06:13:21.747Z,101793.21
2023-02-11T06:16:00.487Z,101798.11
2023-02-11T06:18:32.901Z,101802.61
2023-02-11T06:21:07.358Z,101803.31
2023-02-11T06:23:38.278Z,101802.16
2023-02-11T06:26:13.610Z,101798.86
2023-02-11T06:28:44.369Z,101788.36
2023-02-11T06:31:15.760Z,101781.73
2023-02-11T06:33:47.041Z,101781.52
2023-02-11T06:36:19.869Z,101779.18
2023-02-11T06:38:51.109Z,101780.74
2023-02-11T06:41:21.985Z,101779.79
2023-02-11T06:43:53.445Z,101775.73
2023-02-11T06:46:24.344Z,101775.86
2023-02-11T06:48:55.235Z,101775.71
2023-02-11T06:51:26.191Z,101774.92
2023-02-11T06:53:57.016Z,101779.27
2023-02-11T06:56:28.167Z,101776.98
2023-02-11T06:58:59.224Z,101762.41
2023-02-11T07:01:31.378Z,101763.95
2023-02-11T07:04:02.176Z,101765.35
2023-02-11T07:06:33.145Z,101763.72
2023-02-11T07:09:04.425Z,101753.17
2023-02-11T07:11:35.457Z,101758.77
2023-02-11T07:14:09.369Z,101759.84
2023-02-11T07:16:41.169Z,101759.63
2023-02-11T07:19:12.051Z,101768.30
2023-02-11T07:21:42.776Z,101769.40
2023-02-11T07:24:14.185Z,101778.67
2023-02-11T07:26:45.235Z,101779.61
2023-02-11T07:29:15.993Z,101783.59
2023-02-11T07:31:46.806Z,101780.36
2023-02-11T07:34:17.566Z,101788.11
2023-02-11T07:36:48.990Z,101794.05
2023-02-11T07:39:21.838Z,101791.84
2023-02-11T07:41:52.568Z,101786.27
2023-02-11T07:44:23.517Z,101785.21
2023-02-11T07:46:54.390Z,101788.98
2023-02-11T07:49:25.223Z,101785.85
2023-02-11T07:51:55.975Z,101781.78
2023-02-11T07:54:26.701Z,101788.38
2023-02-11T07:56:57.492Z,101786.06
2023-02-11T07:59:28.494Z,101789.45
2023-02-11T08:01:59.322Z,101788.95
2023-02-11T08:04:30.100Z,101790.34
2023-02-11T08:07:00.810Z,101789.48
2023-02-11T08:09:34.440Z,101790.07
2023-02-11T08:12:05.898Z,101790.52
2023-02-11T08:14:39.533Z,101788.02
2023-02-11T08:17:10.593Z,101789.91
2023-02-11T08:19:41.574Z,101790.34
2023-02-11T08:22:12.610Z,101788.17
2023-02-11T08:24:43.302Z,101786.08
2023-02-11T08:27:14.030Z,101787.48
2023-02-11T08:29:44.892Z,101781.60
2023-02-11T08:32:15.599Z,101786.52
2023-02-11T08:34:46.834Z,101778.29
2023-02-11T08:37:17.828Z,101767.95
2023-02-11T08:39:49.570Z,101774.48
2023-02-11T08:42:20.493Z,101778.59
2023-02-11T08:44:51.421Z,101777.06
2023-02-11T08:47:22.081Z,101768.09
2023-02-11T08:49:52.677Z,101762.75
2023-02-11T08:52:23.625Z,101766.05
2023-02-11T08:54:54.436Z,101771.45
2023-02-11T08:57:25.261Z,101778.56
2023-02-11T08:59:55.919Z,101778.23
2023-02-11T09:02:26.622Z,101779.85
2023-02-11T09:04:57.443Z,101776.17
2023-02-11T09:07:29.406Z,101776.00
2023-02-11T09:10:00.092Z,101791.05
2023-02-11T09:12:31.310Z,101794.08
2023-02-11T09:15:02.196Z,101789.77
2023-02-11T09:17:33.098Z,101785.56
2023-02-11T09:20:04.148Z,101785.59
2023-02-11T09:22:34.913Z,101788.96
2023-02-11T09:25:06.119Z,101796.77
2023-02-11T09:27:36.816Z,101793.42
2023-02-11T09:30:09.128Z,101798.38
2023-02-11T09:32:40.043Z,101808.25
2023-02-11T09:35:11.274Z,101813.59
2023-02-11T09:37:42.158Z,101805.08
2023-02-11T09:40:14.103Z,101812.81
2023-02-11T09:42:51.535Z,101815.19
2023-02-11T09:45:25.412Z,101812.83
2023-02-11T09:48:00.403Z,101802.98
2023-02-11T09:50:36.358Z,101801.25
2023-02-11T09:53:13.446Z,101796.43
2023-02-11T09:55:47.665Z,101802.11
2023-02-11T09:58:22.319Z,101802.25
2023-02-11T10:01:01.142Z,101801.20
2023-02-11T10:04:02.239Z,101794.52
2023-02-11T10:06:50.271Z,101794.08
2023-02-11T10:09:45.435Z,101795.73
2023-02-11T10:12:30.476Z,101799.13
2023-02-11T10:15:14.622Z,101797.54
2023-02-11T10:18:00.452Z,101797.35
2023-02-11T10:20:37.390Z,101793.76
2023-02-11T10:23:16.941Z,101789.77
2023-02-11T10:25:52.884Z,101787.92
2023-02-11T10:28:28.371Z,101788.75
2023-02-11T10:31:01.811Z,101784.95
2023-02-11T10:33:37.535Z,101783.06
2023-02-11T10:36:11.982Z,101780.66
2023-02-11T10:38:43.799Z,101789.85
2023-02-11T10:41:18.703Z,101809.51
2023-02-11T10:43:50.000Z,101806.18
2023-02-11T10:46:23.939Z,101787.52
2023-02-11T10:48:55.549Z,101781.86
2023-02-11T10:51:28.330Z,101790.36
2023-02-11T10:54:19.549Z,101784.37
2023-02-11T10:56:53.509Z,101772.08
2023-02-11T10:59:29.234Z,101763.75
2023-02-11T11:02:01.899Z,101765.75
2023-02-11T11:04:44.081Z,101769.24
2023-02-11T11:07:20.454Z,101780.08
2023-02-11T11:09:55.056Z,101772.58
2023-02-11T11:12:35.081Z,101775.02
2023-02-11T11:15:18.862Z,101773.80
2023-02-11T11:17:49.525Z,101760.09
2023-02-11T11:20:28.499Z,101773.82
2023-02-11T11:23:18.040Z,101776.12
2023-02-11T11:26:02.805Z,101766.88
2023-02-11T11:28:38.950Z,101763.69
2023-02-11T11:31:19.385Z,101763.06
2023-02-11T11:33:52.432Z,101761.41
2023-02-11T11:36:32.496Z,101767.48
2023-02-11T11:39:16.462Z,101758.49
2023-02-11T11:41:58.125Z,101759.98
2023-02-11T11:44:32.247Z,101761.14
2023-02-11T11:47:22.542Z,101754.05
2023-02-11T11:50:06.866Z,101755.02
2023-02-11T11:52:42.773Z,101764.94
2023-02-11T11:55:20.534Z,101771.44
2023-02-11T11:57:52.381Z,101775.56
2023-02-11T12:00:27.806Z,101779.77
2023-02-11T12:03:18.776Z,101780.48
2023-02-11T12:06:01.366Z,101778.52
2023-02-11T12:08:45.468Z,101773.31
2023-02-11T12:11:25.027Z,101776.33
2023-02-11T12:14:18.125Z,101771.98
2023-02-11T12:16:58.989Z,101771.59
2023-02-11T12:19:56.587Z,101764.36
2023-02-11T12:22:40.963Z,101761.64
2023-02-11T12:25:25.779Z,101768.95
2023-02-11T12:28:08.602Z,101765.34
2023-02-11T12:31:00.143Z,101767.90
2023-02-11T12:33:46.599Z,101769.65
2023-02-11T12:36:29.133Z,101770.52
2023-02-11T12:39:09.574Z,101769.68
2023-02-11T12:42:12.890Z,101779.68
2023-02-11T12:44:56.864Z,101780.42
2023-02-11T12:47:34.492Z,101770.52
2023-02-11T12:50:14.903Z,101770.63
2023-02-11T12:53:10.469Z,101774.91
2023-02-11T12:55:45.737Z,101764.66
2023-02-11T12:58:23.786Z,101764.18
2023-02-11T13:01:00.287Z,101768.99
2023-02-11T13:03:36.855Z,101768.19
2023-02-11T13:06:12.983Z,101766.16
2023-02-11T13:08:48.726Z,101757.36
2023-02-11T13:11:24.103Z,101751.95
2023-02-11T13:14:00.815Z,101742.80
2023-02-11T13:16:37.515Z,101739.86
2023-02-11T13:19:22.555Z,101738.48
2023-02-11T13:22:03.025Z,101736.39
2023-02-11T13:24:41.914Z,101733.46
2023-02-11T13:27:24.417Z,101730.19
2023-02-11T13:30:21.635Z,101730.56
2023-02-11T13:33:22.409Z,101715.73
2023-02-11T13:36:18.133Z,101731.55
2023-02-11T13:39:04.265Z,101731.95
2023-02-11T13:41:38.252Z,101728.49
2023-02-11T13:44:27.562Z,101730.35
2023-02-11T13:47:01.463Z,101730.25
2023-02-11T13:49:42.065Z,101730.55
2023-02-11T13:52:26.909Z,101725.11
2023-02-11T13:55:00.416Z,101725.33
2023-02-11T13:57:41.892Z,101721.81
2023-02-11T14:00:47.281Z,101718.95
2023-02-11T14:03:54.054Z,101719.80
2023-02-11T14:06:46.169Z,101722.98
2023-02-11T14:09:43.554Z,101723.73
2023-02-11T14:12:22.989Z,101728.12
2023-02-11T14:15:36.810Z,101733.41
2023-02-11T14:18:49.850Z,101736.64
2023-02-11T14:21:23.965Z,101742.46
2023-02-11T14:23:56.138Z,101744.54
2023-02-11T14:26:44.390Z,101741.54
2023-02-11T14:29:21.513Z,101743.44
2023-02-11T14:32:01.609Z,101740.59
2023-02-11T14:34:48.583Z,101749.02
2023-02-11T14:37:50.340Z,101748.34
2023-02-11T14:40:32.000Z,101750.23
2023-02-11T14:43:13.162Z,101744.93
2023-02-11T14:45:55.098Z,101746.58
2023-02-11T14:48:31.944Z,101747.50
2023-02-11T14:51:07.883Z,101751.32
2023-02-11T14:53:42.288Z,101744.98
2023-02-11T14:56:24.651Z,101742.64
2023-02-11T14:58:56.411Z,101740.11
2023-02-11T15:01:30.778Z,101742.58
2023-02-11T15:04:02.836Z,101739.05
2023-02-11T15:06:37.804Z,101742.63
2023-02-11T15:09:17.925Z,101740.20
2023-02-11T15:11:52.313Z,101744.39
2023-02-11T15:14:27.166Z,101747.48
2023-02-11T15:17:00.594Z,101752.61
2023-02-11T15:19:35.731Z,101746.35
2023-02-11T15:22:08.263Z,101744.17
2023-02-11T15:24:40.475Z,101742.88
2023-02-11T15:27:18.494Z,101745.06
2023-02-11T15:29:51.725Z,101749.17
2023-02-11T15:32:25.013Z,101759.00
2023-02-11T15:34:58.443Z,101751.55
2023-02-11T15:37:30.764Z,101752.43
2023-02-11T15:40:18.924Z,101755.96
2023-02-11T15:42:59.032Z,101757.71
2023-02-11T15:45:34.083Z,101754.73
2023-02-11T15:48:11.117Z,101747.39
2023-02-11T15:50:43.917Z,101749.11
2023-02-11T15:53:27.060Z,101749.02
2023-02-11T15:56:05.586Z,101748.98
2023-02-11T15:58:41.368Z,101752.00
2023-02-11T16:01:13.462Z,101751.21
2023-02-11T16:03:45.287Z,101753.90
2023-02-11T16:06:22.529Z,101760.70
2023-02-11T16:09:05.046Z,101761.36
2023-02-11T16:11:38.402Z,101762.25
2023-02-11T16:14:24.577Z,101769.41
2023-02-11T16:17:01.486Z,101771.19
2023-02-11T16:19:33.682Z,101777.67
2023-02-11T16:22:09.691Z,101779.09
2023-02-11T16:24:41.797Z,101788.52
2023-02-11T16:27:23.160Z,101790.91
2023-02-11T16:29:54.736Z,101786.23
2023-02-11T16:32:28.798Z,101787.06
2023-02-11T16:35:01.877Z,101788.53
2023-02-11T16:37:33.562Z,101792.17
2023-02-11T16:40:04.303Z,101798.52
2023-02-11T16:42:35.251Z,101794.05
2023-02-11T16:45:07.019Z,101795.83
2023-02-11T16:47:41.040Z,101792.66
2023-02-11T16:50:20.099Z,101799.27
2023-02-11T16:52:52.315Z,101797.48
2023-02-11T16:55:23.117Z,101804.29
2023-02-11T16:57:54.115Z,101798.77
2023-02-11T17:00:26.414Z,101803.48
2023-02-11T17:02:57.441Z,101806.23
2023-02-11T17:05:28.128Z,101813.38
2023-02-11T17:07:59.081Z,101816.38
2023-02-11T17:10:30.783Z,101814.88
2023-02-11T17:13:01.688Z,101817.51
2023-02-11T17:15:33.214Z,101820.83
2023-02-11T17:18:04.460Z,101826.92
2023-02-11T17:20:35.131Z,101826.09
2023-02-11T17:23:05.766Z,101824.30
2023-02-11T17:25:37.394Z,101820.77
2023-02-11T17:28:09.770Z,101828.63
2023-02-11T17:30:44.248Z,101840.20
2023-02-11T17:33:16.142Z,101845.15
2023-02-11T17:35:48.390Z,101848.39
2023-02-11T17:38:19.593Z,101851.73
2023-02-11T17:41:00.501Z,101850.16
2023-02-11T17:43:31.226Z,101845.70
2023-02-11T17:46:02.035Z,101842.73
2023-02-11T17:48:32.825Z,101842.01
2023-02-11T17:51:03.503Z,101844.48
2023-02-11T17:53:34.422Z,101850.83
2023-02-11T17:56:07.265Z,101858.80
2023-02-11T17:58:37.850Z,101860.50
2023-02-11T18:01:08.700Z,101865.08
2023-02-11T18:03:39.482Z,101859.52
2023-02-11T18:06:10.880Z,101870.95
2023-02-11T18:08:43.069Z,101875.27
2023-02-11T18:11:15.079Z,101874.81
2023-02-11T18:13:51.487Z,101881.56
2023-02-11T18:16:22.636Z,101885.80
2023-02-11T18:18:53.518Z,101890.45
2023-02-11T18:21:25.314Z,101887.67
2023-02-11T18:23:56.977Z,101890.98
2023-02-11T18:26:28.304Z,101894.46
2023-02-11T18:29:00.535Z,101898.73
2023-02-11T18:31:31.632Z,101903.61
2023-02-11T18:34:02.317Z,101907.15
2023-02-11T18:36:33.436Z,101903.23
2023-02-11T18:39:05.085Z,101910.04
2023-02-11T18:41:35.996Z,101914.97
2023-02-11T18:44:07.056Z,101907.13
2023-02-11T18:46:37.701Z,101910.48
2023-02-11T18:49:09.865Z,101914.65
2023-02-11T18:51:40.711Z,101919.08
2023-02-11T18:54:11.530Z,101926.23
2023-02-11T18:56:42.582Z,101929.85
2023-02-11T18:59:13.618Z,101933.55
2023-02-11T19:01:47.031Z,101937.77
2023-02-11T19:04:20.047Z,101940.91
2023-02-11T19:06:50.292Z,101941.12
2023-02-11T19:09:23.041Z,101946.31
2023-02-11T19:11:55.388Z,101951.77
2023-02-11T19:14:28.203Z,101946.21
2023-02-11T19:17:00.857Z,101944.61
2023-02-11T19:19:33.930Z,101955.12
2023-02-11T19:22:08.507Z,101959.55
2023-02-11T19:24:41.611Z,101967.89
2023-02-11T19:27:12.799Z,101975.33
2023-02-11T19:29:43.589Z,101964.17
2023-02-11T19:32:15.724Z,101964.25
2023-02-11T19:34:46.435Z,101981.08
2023-02-11T19:37:17.251Z,101982.20
2023-02-11T19:39:48.442Z,101983.36
2023-02-11T19:42:19.116Z,101987.96
2023-02-11T19:44:50.093Z,101982.98
2023-02-11T19:47:26.816Z,101981.38
2023-02-11T19:49:57.785Z,101985.02
2023-02-11T19:52:28.598Z,101979.04
2023-02-11T19:54:59.326Z,101986.06
2023-02-11T19:57:30.053Z,101994.39
2023-02-11T20:00:01.433Z,102005.08
2023-02-11T20:02:32.069Z,102005.33
2023-02-11T20:05:03.984Z,102009.21
2023-02-11T20:07:34.918Z,102007.75
2023-02-11T20:10:06.911Z,102013.71
2023-02-11T20:12:38.918Z,102020.26
2023-02-11T20:15:11.247Z,102027.36
2023-02-11T20:17:41.816Z,102035.88
2023-02-11T20:20:13.964Z,102040.54
2023-02-11T20:22:44.630Z,102039.38
2023-02-11T20:25:15.689Z,102036.29
2023-02-11T20:27:46.419Z,102036.71
2023-02-11T20:30:17.804Z,102039.38
2023-02-11T20:32:48.486Z,102038.39
2023-02-11T20:35:19.153Z,102034.95
2023-02-11T20:37:49.992Z,102033.69
2023-02-11T20:40:21.726Z,102029.15
2023-02-11T20:42:52.467Z,102024.99
2023-02-11T20:45:23.314Z,102023.70
2023-02-11T20:47:54.550Z,102018.39
2023-02-11T20:50:25.322Z,102019.74
2023-02-11T20:52:55.941Z,102019.51
2023-02-11T20:55:26.853Z,102022.16
2023-02-11T20:57:57.589Z,102012.48
2023-02-11T21:00:28.351Z,102008.66
2023-02-11T21:02:59.157Z,101999.96
2023-02-11T21:05:29.937Z,102008.43
2023-02-11T21:08:01.010Z,102012.51
2023-02-11T21:10:31.815Z,102017.84
2023-02-11T21:13:02.980Z,102011.56
2023-02-11T21:15:33.809Z,102019.57
2023-02-11T21:18:04.741Z,102018.03
2023-02-11T21:20:35.443Z,102023.80
2023-02-11T21:23:06.075Z,102030.39
2023-02-11T21:25:36.803Z,102031.83
2023-02-11T21:28:07.635Z,102032.52
2023-02-11T21:30:40.321Z,102035.52
2023-02-11T21:33:11.089Z,102036.70
2023-02-11T21:35:41.832Z,102044.04
2023-02-11T21:38:12.939Z,102048.09
2023-02-11T21:40:43.703Z,102059.54
2023-02-11T21:43:14.381Z,102056.02
2023-02-11T21:45:47.172Z,102055.83
2023-02-11T21:48:18.784Z,102059.84
2023-02-11T21:50:50.017Z,102064.68
2023-02-11T21:53:20.868Z,102066.70
2023-02-11T21:55:51.680Z,102068.34
2023-02-11T21:58:22.806Z,102071.98
2023-02-11T22:00:53.702Z,102071.07
2023-02-11T22:03:24.451Z,102077.27
2023-02-11T22:05:55.363Z,102080.78
2023-02-11T22:08:26.404Z,102086.37
2023-02-11T22:11:04.648Z,102091.63
2023-02-11T22:13:36.349Z,102086.81
2023-02-11T22:16:09.414Z,102082.71
2023-02-11T22:18:40.591Z,102081.77
2023-02-11T22:21:13.660Z,102077.45
2023-02-11T22:23:42.789Z,102084.13
2023-02-11T22:26:16.681Z,102093.08
2023-02-11T22:28:47.639Z,102108.05
2023-02-11T22:31:20.814Z,102106.63
2023-02-11T22:33:51.891Z,102108.36
2023-02-11T22:36:24.414Z,102105.05
2023-02-11T22:38:56.061Z,102111.77
2023-02-11T22:41:27.442Z,102111.58
2023-02-11T22:43:58.242Z,102109.77
2023-02-11T22:46:29.054Z,102103.46
2023-02-11T22:48:59.822Z,102108.77
2023-02-11T22:51:32.207Z,102114.05
2023-02-11T22:54:04.915Z,102123.33
2023-02-11T22:56:36.398Z,102128.48
2023-02-11T22:59:09.640Z,102132.23
2023-02-11T23:01:40.724Z,102134.81
2023-02-11T23:04:14.408Z,102136.17
2023-02-11T23:06:47.458Z,102138.16
2023-02-11T23:09:16.725Z,102145.02
2023-02-11T23:11:49.417Z,102145.08
2023-02-11T23:14:20.086Z,102144.91
2023-02-11T23:16:52.237Z,102138.49
2023-02-11T23:19:23.106Z,102152.30
2023-02-11T23:21:54.537Z,102152.27
2023-02-11T23:24:25.573Z,102156.23
2023-02-11T23:26:56.368Z,102154.29
2023-02-11T23:29:27.189Z,102150.45
2023-02-11T23:31:59.018Z,102158.14
2023-02-11T23:34:30.091Z,102163.25
2023-02-11T23:37:00.843Z,102165.23
2023-02-11T23:39:31.609Z,102165.52
2023-02-11T23:42:02.305Z,102164.13
2023-02-11T23:44:33.227Z,102167.54
2023-02-11T23:47:03.892Z,102164.98
2023-02-11T23:49:34.616Z,102164.23
2023-02-11T23:52:05.301Z,102162.46
2023-02-11T23:54:35.965Z,102161.61
2023-02-11T23:57:06.979Z,102160.86
2023-02-11T23:59:37.818Z,102161.54
